sensor_id;sensor_type;location;lat;lon;timestamp;P1;durP1;ratioP1;P2;durP2;ratioP2
29362;SDS011;16349;53.672;10.014;2023-03-01T00:00:12;18.87;;;11.87;;
29362;SDS011;16349;53.672;10.014;2023-03-01T00:02:41;23.70;;;13.57;;
29362;SDS011;16349;53.672;10.014;2023-03-01T00:05:08;20.63;;;13.57;;
29362;SDS011;16349;53.672;10.014;2023-03-01T00:07:34;23.40;;;14.10;;
29362;SDS011;16349;53.672;10.014;2023-03-01T00:10:02;16.67;;;11.40;;
29362;SDS011;16349;53.672;10.014;2023-03-01T00:12:29;19.87;;;12.23;;
29362;SDS011;16349;53.672;10.014;2023-03-01T00:14:57;18.87;;;12.23;;
29362;SDS011;16349;53.672;10.014;2023-03-01T00:17:23;21.93;;;12.47;;
29362;SDS011;16349;53.672;10.014;2023-03-01T00:19:53;25.37;;;13.90;;
29362;SDS011;16349;53.672;10.014;2023-03-01T00:22:19;19.33;;;12.83;;
29362;SDS011;16349;53.672;10.014;2023-03-01T00:24:46;19.13;;;13.47;;
29362;SDS011;16349;53.672;10.014;2023-03-01T00:27:12;16.80;;;11.47;;
29362;SDS011;16349;53.672;10.014;2023-03-01T00:29:39;15.30;;;10.67;;
29362;SDS011;16349;53.672;10.014;2023-03-01T00:32:06;20.83;;;11.53;;
29362;SDS011;16349;53.672;10.014;2023-03-01T00:34:33;13.60;;;9.40;;
29362;SDS011;16349;53.672;10.014;2023-03-01T00:37:01;14.13;;;9.03;;
29362;SDS011;16349;53.672;10.014;2023-03-01T00:39:30;11.93;;;9.00;;
29362;SDS011;16349;53.672;10.014;2023-03-01T00:41:58;15.27;;;9.67;;
29362;SDS011;16349;53.672;10.014;2023-03-01T00:44:25;14.47;;;9.37;;
29362;SDS011;16349;53.672;10.014;2023-03-01T00:46:51;18.40;;;10.47;;
29362;SDS011;16349;53.672;10.014;2023-03-01T00:49:19;15.63;;;9.90;;
29362;SDS011;16349;53.672;10.014;2023-03-01T00:51:45;16.67;;;8.93;;
29362;SDS011;16349;53.672;10.014;2023-03-01T00:54:14;15.30;;;9.30;;
29362;SDS011;16349;53.672;10.014;2023-03-01T00:56:40;15.97;;;9.13;;
29362;SDS011;16349;53.672;10.014;2023-03-01T00:59:07;16.60;;;9.53;;
29362;SDS011;16349;53.672;10.014;2023-03-01T01:01:34;12.13;;;8.70;;
29362;SDS011;16349;53.672;10.014;2023-03-01T01:04:02;13.20;;;9.07;;
29362;SDS011;16349;53.672;10.014;2023-03-01T01:06:31;10.47;;;8.33;;
29362;SDS011;16349;53.672;10.014;2023-03-01T01:08:59;11.40;;;8.83;;
29362;SDS011;16349;53.672;10.014;2023-03-01T01:11:29;17.87;;;9.37;;
29362;SDS011;16349;53.672;10.014;2023-03-01T01:13:56;11.87;;;7.93;;
29362;SDS011;16349;53.672;10.014;2023-03-01T01:16:24;12.73;;;8.43;;
29362;SDS011;16349;53.672;10.014;2023-03-01T01:18:52;13.53;;;8.93;;
29362;SDS011;16349;53.672;10.014;2023-03-01T01:21:20;18.37;;;9.53;;
29362;SDS011;16349;53.672;10.014;2023-03-01T01:23:50;12.87;;;9.23;;
29362;SDS011;16349;53.672;10.014;2023-03-01T01:26:19;16.97;;;8.60;;
29362;SDS011;16349;53.672;10.014;2023-03-01T01:28:50;12.93;;;9.07;;
29362;SDS011;16349;53.672;10.014;2023-03-01T01:31:17;16.83;;;9.13;;
29362;SDS011;16349;53.672;10.014;2023-03-01T01:33:44;14.93;;;8.97;;
29362;SDS011;16349;53.672;10.014;2023-03-01T01:36:12;14.43;;;9.13;;
29362;SDS011;16349;53.672;10.014;2023-03-01T01:38:39;14.87;;;8.80;;
29362;SDS011;16349;53.672;10.014;2023-03-01T01:41:07;15.67;;;9.10;;
29362;SDS011;16349;53.672;10.014;2023-03-01T01:43:37;14.17;;;9.53;;
29362;SDS011;16349;53.672;10.014;2023-03-01T01:46:13;15.53;;;8.87;;
29362;SDS011;16349;53.672;10.014;2023-03-01T01:48:48;15.83;;;8.13;;
29362;SDS011;16349;53.672;10.014;2023-03-01T01:51:20;12.40;;;7.73;;
29362;SDS011;16349;53.672;10.014;2023-03-01T01:53:51;12.27;;;7.40;;
29362;SDS011;16349;53.672;10.014;2023-03-01T01:56:20;10.67;;;7.50;;
29362;SDS011;16349;53.672;10.014;2023-03-01T01:58:50;13.57;;;8.00;;
29362;SDS011;16349;53.672;10.014;2023-03-01T02:01:18;9.97;;;7.83;;
29362;SDS011;16349;53.672;10.014;2023-03-01T02:03:46;13.47;;;7.53;;
29362;SDS011;16349;53.672;10.014;2023-03-01T02:06:17;9.73;;;7.07;;
29362;SDS011;16349;53.672;10.014;2023-03-01T02:08:48;10.37;;;7.10;;
29362;SDS011;16349;53.672;10.014;2023-03-01T02:11:18;10.97;;;7.77;;
29362;SDS011;16349;53.672;10.014;2023-03-01T02:13:47;16.00;;;8.20;;
29362;SDS011;16349;53.672;10.014;2023-03-01T02:16:15;12.60;;;7.83;;
29362;SDS011;16349;53.672;10.014;2023-03-01T02:18:43;10.97;;;7.37;;
29362;SDS011;16349;53.672;10.014;2023-03-01T02:21:17;10.33;;;7.30;;
29362;SDS011;16349;53.672;10.014;2023-03-01T02:23:54;10.77;;;8.13;;
29362;SDS011;16349;53.672;10.014;2023-03-01T02:26:25;11.03;;;7.00;;
29362;SDS011;16349;53.672;10.014;2023-03-01T02:29:00;12.53;;;7.33;;
29362;SDS011;16349;53.672;10.014;2023-03-01T02:31:27;14.00;;;8.43;;
29362;SDS011;16349;53.672;10.014;2023-03-01T02:34:12;16.40;;;8.60;;
29362;SDS011;16349;53.672;10.014;2023-03-01T02:36:42;11.07;;;8.20;;
29362;SDS011;16349;53.672;10.014;2023-03-01T02:39:14;15.77;;;9.00;;
29362;SDS011;16349;53.672;10.014;2023-03-01T02:41:46;11.47;;;8.07;;
29362;SDS011;16349;53.672;10.014;2023-03-01T02:44:15;13.97;;;8.47;;
29362;SDS011;16349;53.672;10.014;2023-03-01T02:46:43;11.63;;;8.53;;
29362;SDS011;16349;53.672;10.014;2023-03-01T02:49:22;14.87;;;9.10;;
29362;SDS011;16349;53.672;10.014;2023-03-01T02:52:01;14.50;;;8.97;;
29362;SDS011;16349;53.672;10.014;2023-03-01T02:54:47;12.23;;;8.60;;
29362;SDS011;16349;53.672;10.014;2023-03-01T02:57:17;13.07;;;8.97;;
29362;SDS011;16349;53.672;10.014;2023-03-01T02:59:46;11.67;;;8.77;;
29362;SDS011;16349;53.672;10.014;2023-03-01T03:02:18;13.30;;;8.30;;
29362;SDS011;16349;53.672;10.014;2023-03-01T03:05:05;15.13;;;8.33;;
29362;SDS011;16349;53.672;10.014;2023-03-01T03:07:36;14.77;;;9.27;;
29362;SDS011;16349;53.672;10.014;2023-03-01T03:10:05;11.33;;;8.20;;
29362;SDS011;16349;53.672;10.014;2023-03-01T03:12:34;18.20;;;9.93;;
29362;SDS011;16349;53.672;10.014;2023-03-01T03:15:03;16.23;;;9.60;;
29362;SDS011;16349;53.672;10.014;2023-03-01T03:17:34;11.67;;;8.87;;
29362;SDS011;16349;53.672;10.014;2023-03-01T03:20:01;16.27;;;9.37;;
29362;SDS011;16349;53.672;10.014;2023-03-01T03:22:29;14.70;;;8.93;;
29362;SDS011;16349;53.672;10.014;2023-03-01T03:24:56;11.57;;;8.30;;
29362;SDS011;16349;53.672;10.014;2023-03-01T03:27:23;15.40;;;9.13;;
29362;SDS011;16349;53.672;10.014;2023-03-01T03:29:49;11.07;;;8.00;;
29362;SDS011;16349;53.672;10.014;2023-03-01T03:32:17;12.63;;;8.03;;
29362;SDS011;16349;53.672;10.014;2023-03-01T03:34:44;11.97;;;8.23;;
29362;SDS011;16349;53.672;10.014;2023-03-01T03:37:11;10.87;;;7.83;;
29362;SDS011;16349;53.672;10.014;2023-03-01T03:39:52;8.80;;;6.23;;
29362;SDS011;16349;53.672;10.014;2023-03-01T03:42:20;9.87;;;7.13;;
29362;SDS011;16349;53.672;10.014;2023-03-01T03:44:47;9.97;;;7.40;;
29362;SDS011;16349;53.672;10.014;2023-03-01T03:47:14;10.33;;;7.40;;
29362;SDS011;16349;53.672;10.014;2023-03-01T03:49:43;12.53;;;7.20;;
29362;SDS011;16349;53.672;10.014;2023-03-01T03:52:09;12.73;;;7.93;;
29362;SDS011;16349;53.672;10.014;2023-03-01T03:54:39;13.53;;;7.27;;
29362;SDS011;16349;53.672;10.014;2023-03-01T03:57:06;14.07;;;7.47;;
29362;SDS011;16349;53.672;10.014;2023-03-01T03:59:33;10.63;;;6.93;;
29362;SDS011;16349;53.672;10.014;2023-03-01T04:02:00;9.70;;;6.90;;
29362;SDS011;16349;53.672;10.014;2023-03-01T04:04:27;10.17;;;7.80;;
29362;SDS011;16349;53.672;10.014;2023-03-01T04:06:55;8.77;;;6.83;;
29362;SDS011;16349;53.672;10.014;2023-03-01T04:09:22;13.47;;;8.30;;
29362;SDS011;16349;53.672;10.014;2023-03-01T04:11:48;12.17;;;8.60;;
29362;SDS011;16349;53.672;10.014;2023-03-01T04:14:15;14.50;;;8.40;;
29362;SDS011;16349;53.672;10.014;2023-03-01T04:16:42;15.20;;;8.87;;
29362;SDS011;16349;53.672;10.014;2023-03-01T04:19:09;12.63;;;8.70;;
29362;SDS011;16349;53.672;10.014;2023-03-01T04:21:35;12.67;;;8.67;;
29362;SDS011;16349;53.672;10.014;2023-03-01T04:24:04;13.90;;;8.67;;
29362;SDS011;16349;53.672;10.014;2023-03-01T04:26:31;13.70;;;9.70;;
29362;SDS011;16349;53.672;10.014;2023-03-01T04:28:58;13.37;;;8.83;;
29362;SDS011;16349;53.672;10.014;2023-03-01T04:31:25;13.10;;;8.60;;
29362;SDS011;16349;53.672;10.014;2023-03-01T04:33:53;15.23;;;8.67;;
29362;SDS011;16349;53.672;10.014;2023-03-01T04:36:21;11.03;;;8.67;;
29362;SDS011;16349;53.672;10.014;2023-03-01T04:38:50;11.60;;;8.27;;
29362;SDS011;16349;53.672;10.014;2023-03-01T04:41:19;15.30;;;8.83;;
29362;SDS011;16349;53.672;10.014;2023-03-01T04:43:49;12.63;;;8.57;;
29362;SDS011;16349;53.672;10.014;2023-03-01T04:46:16;11.97;;;8.73;;
29362;SDS011;16349;53.672;10.014;2023-03-01T04:48:44;11.83;;;8.20;;
29362;SDS011;16349;53.672;10.014;2023-03-01T04:51:12;11.00;;;8.50;;
29362;SDS011;16349;53.672;10.014;2023-03-01T04:53:40;12.93;;;8.87;;
29362;SDS011;16349;53.672;10.014;2023-03-01T04:56:11;14.83;;;9.90;;
29362;SDS011;16349;53.672;10.014;2023-03-01T04:58:40;13.00;;;8.80;;
29362;SDS011;16349;53.672;10.014;2023-03-01T05:01:08;11.87;;;8.83;;
29362;SDS011;16349;53.672;10.014;2023-03-01T05:03:40;11.77;;;8.50;;
29362;SDS011;16349;53.672;10.014;2023-03-01T05:06:07;11.03;;;8.97;;
29362;SDS011;16349;53.672;10.014;2023-03-01T05:08:34;13.70;;;9.27;;
29362;SDS011;16349;53.672;10.014;2023-03-01T05:11:03;9.77;;;8.07;;
29362;SDS011;16349;53.672;10.014;2023-03-01T05:13:30;12.87;;;8.50;;
29362;SDS011;16349;53.672;10.014;2023-03-01T05:15:58;12.47;;;8.23;;
29362;SDS011;16349;53.672;10.014;2023-03-01T05:18:27;11.67;;;7.93;;
29362;SDS011;16349;53.672;10.014;2023-03-01T05:20:56;11.57;;;8.53;;
29362;SDS011;16349;53.672;10.014;2023-03-01T05:23:30;11.87;;;7.70;;
29362;SDS011;16349;53.672;10.014;2023-03-01T05:25:57;10.77;;;7.60;;
29362;SDS011;16349;53.672;10.014;2023-03-01T05:28:24;11.00;;;7.07;;
29362;SDS011;16349;53.672;10.014;2023-03-01T05:30:53;11.47;;;7.40;;
29362;SDS011;16349;53.672;10.014;2023-03-01T05:33:21;9.10;;;6.93;;
29362;SDS011;16349;53.672;10.014;2023-03-01T05:35:48;8.97;;;6.80;;
29362;SDS011;16349;53.672;10.014;2023-03-01T05:38:17;9.33;;;6.77;;
29362;SDS011;16349;53.672;10.014;2023-03-01T05:40:45;10.67;;;6.70;;
29362;SDS011;16349;53.672;10.014;2023-03-01T05:43:14;10.00;;;7.17;;
29362;SDS011;16349;53.672;10.014;2023-03-01T05:45:43;8.30;;;6.87;;
29362;SDS011;16349;53.672;10.014;2023-03-01T05:48:10;9.07;;;6.87;;
29362;SDS011;16349;53.672;10.014;2023-03-01T05:50:40;9.43;;;6.57;;
29362;SDS011;16349;53.672;10.014;2023-03-01T05:53:30;11.47;;;6.70;;
29362;SDS011;16349;53.672;10.014;2023-03-01T05:55:57;8.67;;;7.10;;
29362;SDS011;16349;53.672;10.014;2023-03-01T05:58:23;11.60;;;6.73;;
29362;SDS011;16349;53.672;10.014;2023-03-01T06:00:50;9.07;;;6.43;;
29362;SDS011;16349;53.672;10.014;2023-03-01T06:03:38;8.30;;;6.33;;
29362;SDS011;16349;53.672;10.014;2023-03-01T06:06:06;7.37;;;6.40;;
29362;SDS011;16349;53.672;10.014;2023-03-01T06:08:33;8.37;;;6.27;;
29362;SDS011;16349;53.672;10.014;2023-03-01T06:11:00;9.80;;;7.30;;
29362;SDS011;16349;53.672;10.014;2023-03-01T06:13:27;11.87;;;6.13;;
29362;SDS011;16349;53.672;10.014;2023-03-01T06:15:54;9.03;;;6.10;;
29362;SDS011;16349;53.672;10.014;2023-03-01T06:18:21;9.57;;;6.80;;
29362;SDS011;16349;53.672;10.014;2023-03-01T06:20:52;10.73;;;6.57;;
29362;SDS011;16349;53.672;10.014;2023-03-01T06:23:20;8.43;;;6.53;;
29362;SDS011;16349;53.672;10.014;2023-03-01T06:25:47;10.70;;;6.63;;
29362;SDS011;16349;53.672;10.014;2023-03-01T06:28:14;7.93;;;6.33;;
29362;SDS011;16349;53.672;10.014;2023-03-01T06:30:43;7.80;;;6.33;;
29362;SDS011;16349;53.672;10.014;2023-03-01T06:33:11;8.63;;;6.50;;
29362;SDS011;16349;53.672;10.014;2023-03-01T06:35:38;10.53;;;6.27;;
29362;SDS011;16349;53.672;10.014;2023-03-01T06:38:05;8.77;;;6.33;;
29362;SDS011;16349;53.672;10.014;2023-03-01T06:40:35;9.37;;;5.70;;
29362;SDS011;16349;53.672;10.014;2023-03-01T06:43:02;10.40;;;6.93;;
29362;SDS011;16349;53.672;10.014;2023-03-01T06:45:29;8.33;;;6.07;;
29362;SDS011;16349;53.672;10.014;2023-03-01T06:48:01;8.70;;;6.17;;
29362;SDS011;16349;53.672;10.014;2023-03-01T06:50:29;8.70;;;6.07;;
29362;SDS011;16349;53.672;10.014;2023-03-01T06:52:56;9.87;;;6.03;;
29362;SDS011;16349;53.672;10.014;2023-03-01T06:55:23;9.97;;;6.47;;
29362;SDS011;16349;53.672;10.014;2023-03-01T06:57:55;7.60;;;5.63;;
29362;SDS011;16349;53.672;10.014;2023-03-01T07:00:22;7.73;;;5.90;;
29362;SDS011;16349;53.672;10.014;2023-03-01T07:02:51;9.73;;;6.33;;
29362;SDS011;16349;53.672;10.014;2023-03-01T07:05:18;11.73;;;6.40;;
29362;SDS011;16349;53.672;10.014;2023-03-01T07:07:47;12.23;;;6.77;;
29362;SDS011;16349;53.672;10.014;2023-03-01T07:10:15;10.93;;;6.93;;
29362;SDS011;16349;53.672;10.014;2023-03-01T07:12:43;10.30;;;6.83;;
29362;SDS011;16349;53.672;10.014;2023-03-01T07:15:34;8.83;;;6.63;;
29362;SDS011;16349;53.672;10.014;2023-03-01T07:18:03;9.53;;;6.93;;
29362;SDS011;16349;53.672;10.014;2023-03-01T07:20:30;11.63;;;7.03;;
29362;SDS011;16349;53.672;10.014;2023-03-01T07:22:57;11.27;;;7.67;;
29362;SDS011;16349;53.672;10.014;2023-03-01T07:25:23;17.70;;;8.17;;
29362;SDS011;16349;53.672;10.014;2023-03-01T07:27:51;15.43;;;8.20;;
29362;SDS011;16349;53.672;10.014;2023-03-01T07:30:19;15.63;;;9.43;;
29362;SDS011;16349;53.672;10.014;2023-03-01T07:32:48;12.37;;;7.73;;
29362;SDS011;16349;53.672;10.014;2023-03-01T07:35:14;12.60;;;8.30;;
29362;SDS011;16349;53.672;10.014;2023-03-01T07:37:42;10.87;;;7.90;;
29362;SDS011;16349;53.672;10.014;2023-03-01T07:40:09;13.13;;;7.67;;
29362;SDS011;16349;53.672;10.014;2023-03-01T07:42:39;12.60;;;8.20;;
29362;SDS011;16349;53.672;10.014;2023-03-01T07:45:06;12.47;;;8.17;;
29362;SDS011;16349;53.672;10.014;2023-03-01T07:47:34;10.33;;;8.23;;
29362;SDS011;16349;53.672;10.014;2023-03-01T07:50:03;12.47;;;8.53;;
29362;SDS011;16349;53.672;10.014;2023-03-01T07:52:51;13.73;;;9.43;;
29362;SDS011;16349;53.672;10.014;2023-03-01T07:55:18;15.20;;;8.93;;
29362;SDS011;16349;53.672;10.014;2023-03-01T07:57:46;16.40;;;10.33;;
29362;SDS011;16349;53.672;10.014;2023-03-01T08:00:13;16.60;;;10.03;;
29362;SDS011;16349;53.672;10.014;2023-03-01T08:02:41;13.27;;;9.13;;
29362;SDS011;16349;53.672;10.014;2023-03-01T08:05:09;12.47;;;9.00;;
29362;SDS011;16349;53.672;10.014;2023-03-01T08:07:37;16.13;;;9.80;;
29362;SDS011;16349;53.672;10.014;2023-03-01T08:10:05;14.10;;;9.13;;
29362;SDS011;16349;53.672;10.014;2023-03-01T08:12:32;12.83;;;8.80;;
29362;SDS011;16349;53.672;10.014;2023-03-01T08:14:59;11.90;;;8.27;;
29362;SDS011;16349;53.672;10.014;2023-03-01T08:17:26;12.33;;;9.23;;
29362;SDS011;16349;53.672;10.014;2023-03-01T08:20:16;12.03;;;8.97;;
29362;SDS011;16349;53.672;10.014;2023-03-01T08:22:44;10.80;;;8.70;;
29362;SDS011;16349;53.672;10.014;2023-03-01T08:25:10;12.43;;;8.60;;
29362;SDS011;16349;53.672;10.014;2023-03-01T08:27:57;12.57;;;8.57;;
29362;SDS011;16349;53.672;10.014;2023-03-01T08:30:25;13.83;;;9.80;;
29362;SDS011;16349;53.672;10.014;2023-03-01T08:32:52;12.03;;;9.27;;
29362;SDS011;16349;53.672;10.014;2023-03-01T08:35:21;15.10;;;9.50;;
29362;SDS011;16349;53.672;10.014;2023-03-01T08:37:48;12.67;;;8.77;;
29362;SDS011;16349;53.672;10.014;2023-03-01T08:40:15;14.33;;;9.43;;
29362;SDS011;16349;53.672;10.014;2023-03-01T08:42:41;14.40;;;9.27;;
29362;SDS011;16349;53.672;10.014;2023-03-01T08:45:09;17.50;;;10.00;;
29362;SDS011;16349;53.672;10.014;2023-03-01T08:47:38;11.57;;;8.53;;
29362;SDS011;16349;53.672;10.014;2023-03-01T08:50:05;12.53;;;9.77;;
29362;SDS011;16349;53.672;10.014;2023-03-01T08:52:35;12.27;;;9.23;;
29362;SDS011;16349;53.672;10.014;2023-03-01T08:55:02;16.27;;;10.00;;
29362;SDS011;16349;53.672;10.014;2023-03-01T08:57:29;12.53;;;9.60;;
29362;SDS011;16349;53.672;10.014;2023-03-01T08:59:56;13.47;;;9.00;;
29362;SDS011;16349;53.672;10.014;2023-03-01T09:02:23;16.70;;;9.83;;
29362;SDS011;16349;53.672;10.014;2023-03-01T09:04:50;15.20;;;9.20;;
29362;SDS011;16349;53.672;10.014;2023-03-01T09:07:17;15.63;;;10.20;;
29362;SDS011;16349;53.672;10.014;2023-03-01T09:09:46;18.67;;;10.07;;
29362;SDS011;16349;53.672;10.014;2023-03-01T09:12:13;14.03;;;9.83;;
29362;SDS011;16349;53.672;10.014;2023-03-01T09:14:39;14.07;;;9.50;;
29362;SDS011;16349;53.672;10.014;2023-03-01T09:17:07;14.13;;;9.77;;
29362;SDS011;16349;53.672;10.014;2023-03-01T09:19:34;16.20;;;10.10;;
29362;SDS011;16349;53.672;10.014;2023-03-01T09:22:02;15.83;;;10.37;;
29362;SDS011;16349;53.672;10.014;2023-03-01T09:24:29;17.47;;;11.10;;
29362;SDS011;16349;53.672;10.014;2023-03-01T09:27:20;22.77;;;10.83;;
29362;SDS011;16349;53.672;10.014;2023-03-01T09:29:47;17.50;;;10.50;;
29362;SDS011;16349;53.672;10.014;2023-03-01T09:32:14;13.43;;;9.70;;
29362;SDS011;16349;53.672;10.014;2023-03-01T09:34:41;14.10;;;9.47;;
29362;SDS011;16349;53.672;10.014;2023-03-01T09:37:48;12.90;;;9.77;;
29362;SDS011;16349;53.672;10.014;2023-03-01T09:40:16;18.73;;;9.73;;
29362;SDS011;16349;53.672;10.014;2023-03-01T09:43:12;12.23;;;8.83;;
29362;SDS011;16349;53.672;10.014;2023-03-01T09:45:46;14.37;;;9.43;;
29362;SDS011;16349;53.672;10.014;2023-03-01T09:48:18;12.90;;;8.70;;
29362;SDS011;16349;53.672;10.014;2023-03-01T09:50:52;14.67;;;8.70;;
29362;SDS011;16349;53.672;10.014;2023-03-01T09:53:20;12.50;;;9.47;;
29362;SDS011;16349;53.672;10.014;2023-03-01T09:55:51;12.77;;;8.83;;
29362;SDS011;16349;53.672;10.014;2023-03-01T09:58:31;12.37;;;9.00;;
29362;SDS011;16349;53.672;10.014;2023-03-01T10:01:16;11.67;;;9.40;;
29362;SDS011;16349;53.672;10.014;2023-03-01T10:04:16;13.17;;;8.87;;
29362;SDS011;16349;53.672;10.014;2023-03-01T10:06:55;11.07;;;8.40;;
29362;SDS011;16349;53.672;10.014;2023-03-01T10:09:32;13.37;;;9.70;;
29362;SDS011;16349;53.672;10.014;2023-03-01T10:12:01;12.90;;;8.57;;
29362;SDS011;16349;53.672;10.014;2023-03-01T10:14:55;14.73;;;8.27;;
29362;SDS011;16349;53.672;10.014;2023-03-01T10:17:30;25.57;;;8.27;;
29362;SDS011;16349;53.672;10.014;2023-03-01T10:20:13;11.33;;;7.70;;
29362;SDS011;16349;53.672;10.014;2023-03-01T10:22:43;11.23;;;7.90;;
29362;SDS011;16349;53.672;10.014;2023-03-01T10:25:17;10.10;;;7.60;;
29362;SDS011;16349;53.672;10.014;2023-03-01T10:28:24;14.07;;;7.87;;
29362;SDS011;16349;53.672;10.014;2023-03-01T10:30:55;16.20;;;8.00;;
29362;SDS011;16349;53.672;10.014;2023-03-01T10:33:25;11.83;;;7.70;;
29362;SDS011;16349;53.672;10.014;2023-03-01T10:35:55;11.23;;;7.43;;
29362;SDS011;16349;53.672;10.014;2023-03-01T10:38:47;11.40;;;7.30;;
29362;SDS011;16349;53.672;10.014;2023-03-01T10:41:36;11.90;;;8.23;;
29362;SDS011;16349;53.672;10.014;2023-03-01T10:44:41;10.97;;;7.60;;
29362;SDS011;16349;53.672;10.014;2023-03-01T10:47:16;10.57;;;7.23;;
29362;SDS011;16349;53.672;10.014;2023-03-01T10:49:53;14.00;;;8.40;;
29362;SDS011;16349;53.672;10.014;2023-03-01T10:52:23;11.17;;;7.77;;
29362;SDS011;16349;53.672;10.014;2023-03-01T10:54:54;9.63;;;7.43;;
29362;SDS011;16349;53.672;10.014;2023-03-01T10:57:36;11.07;;;7.50;;
29362;SDS011;16349;53.672;10.014;2023-03-01T11:00:16;13.43;;;8.13;;
29362;SDS011;16349;53.672;10.014;2023-03-01T11:03:12;10.20;;;7.53;;
29362;SDS011;16349;53.672;10.014;2023-03-01T11:05:51;10.67;;;8.07;;
29362;SDS011;16349;53.672;10.014;2023-03-01T11:08:38;9.37;;;6.97;;
29362;SDS011;16349;53.672;10.014;2023-03-01T11:11:20;12.73;;;8.27;;
29362;SDS011;16349;53.672;10.014;2023-03-01T11:13:51;11.40;;;7.87;;
29362;SDS011;16349;53.672;10.014;2023-03-01T11:16:24;11.77;;;7.77;;
29362;SDS011;16349;53.672;10.014;2023-03-01T11:18:58;11.53;;;8.03;;
29362;SDS011;16349;53.672;10.014;2023-03-01T11:21:26;11.40;;;7.47;;
29362;SDS011;16349;53.672;10.014;2023-03-01T11:23:58;11.07;;;7.70;;
29362;SDS011;16349;53.672;10.014;2023-03-01T11:26:27;10.00;;;7.53;;
29362;SDS011;16349;53.672;10.014;2023-03-01T11:28:58;12.43;;;7.50;;
29362;SDS011;16349;53.672;10.014;2023-03-01T11:31:30;11.87;;;7.10;;
29362;SDS011;16349;53.672;10.014;2023-03-01T11:33:59;12.57;;;8.53;;
29362;SDS011;16349;53.672;10.014;2023-03-01T11:36:34;7.20;;;5.77;;
29362;SDS011;16349;53.672;10.014;2023-03-01T11:39:05;9.43;;;7.43;;
29362;SDS011;16349;53.672;10.014;2023-03-01T11:41:43;10.00;;;6.60;;
29362;SDS011;16349;53.672;10.014;2023-03-01T11:44:17;8.67;;;6.30;;
29362;SDS011;16349;53.672;10.014;2023-03-01T11:46:53;9.17;;;6.17;;
29362;SDS011;16349;53.672;10.014;2023-03-01T11:49:51;9.30;;;6.37;;
29362;SDS011;16349;53.672;10.014;2023-03-01T11:52:29;11.07;;;6.80;;
29362;SDS011;16349;53.672;10.014;2023-03-01T11:55:08;9.33;;;6.77;;
29362;SDS011;16349;53.672;10.014;2023-03-01T11:57:48;7.63;;;6.27;;
29362;SDS011;16349;53.672;10.014;2023-03-01T12:03:27;7.40;;;5.83;;
29362;SDS011;16349;53.672;10.014;2023-03-01T12:06:03;9.03;;;6.10;;
29362;SDS011;16349;53.672;10.014;2023-03-01T12:09:09;9.43;;;6.07;;
29362;SDS011;16349;53.672;10.014;2023-03-01T12:11:51;7.97;;;5.93;;
29362;SDS011;16349;53.672;10.014;2023-03-01T12:14:37;6.33;;;4.90;;
29362;SDS011;16349;53.672;10.014;2023-03-01T12:17:20;6.87;;;5.13;;
29362;SDS011;16349;53.672;10.014;2023-03-01T12:20:02;8.10;;;5.57;;
29362;SDS011;16349;53.672;10.014;2023-03-01T12:22:44;10.17;;;5.60;;
29362;SDS011;16349;53.672;10.014;2023-03-01T12:25:25;6.73;;;5.10;;
29362;SDS011;16349;53.672;10.014;2023-03-01T12:28:03;8.00;;;5.10;;
29362;SDS011;16349;53.672;10.014;2023-03-01T12:30:43;6.53;;;5.03;;
29362;SDS011;16349;53.672;10.014;2023-03-01T12:33:29;6.80;;;4.77;;
29362;SDS011;16349;53.672;10.014;2023-03-01T12:36:19;5.37;;;4.50;;
29362;SDS011;16349;53.672;10.014;2023-03-01T12:39:02;7.30;;;4.37;;
29362;SDS011;16349;53.672;10.014;2023-03-01T12:41:42;5.83;;;4.60;;
29362;SDS011;16349;53.672;10.014;2023-03-01T12:44:26;5.20;;;4.70;;
29362;SDS011;16349;53.672;10.014;2023-03-01T12:47:22;7.60;;;4.50;;
29362;SDS011;16349;53.672;10.014;2023-03-01T12:49:57;9.40;;;4.60;;
29362;SDS011;16349;53.672;10.014;2023-03-01T12:52:31;4.53;;;3.97;;
29362;SDS011;16349;53.672;10.014;2023-03-01T12:55:08;4.97;;;4.10;;
29362;SDS011;16349;53.672;10.014;2023-03-01T12:57:46;4.83;;;3.70;;
29362;SDS011;16349;53.672;10.014;2023-03-01T13:00:23;5.77;;;4.20;;
29362;SDS011;16349;53.672;10.014;2023-03-01T13:02:55;6.50;;;4.20;;
29362;SDS011;16349;53.672;10.014;2023-03-01T13:05:29;6.40;;;4.70;;
29362;SDS011;16349;53.672;10.014;2023-03-01T13:08:07;5.43;;;4.43;;
29362;SDS011;16349;53.672;10.014;2023-03-01T13:10:43;7.90;;;4.27;;
29362;SDS011;16349;53.672;10.014;2023-03-01T13:13:19;4.70;;;4.20;;
29362;SDS011;16349;53.672;10.014;2023-03-01T13:15:46;4.87;;;3.93;;
29362;SDS011;16349;53.672;10.014;2023-03-01T13:18:32;4.90;;;4.00;;
29362;SDS011;16349;53.672;10.014;2023-03-01T13:21:00;4.60;;;4.10;;
29362;SDS011;16349;53.672;10.014;2023-03-01T13:23:30;6.10;;;3.70;;
29362;SDS011;16349;53.672;10.014;2023-03-01T13:26:06;6.43;;;4.20;;
29362;SDS011;16349;53.672;10.014;2023-03-01T13:28:38;5.27;;;4.13;;
29362;SDS011;16349;53.672;10.014;2023-03-01T13:34:30;4.37;;;3.70;;
29362;SDS011;16349;53.672;10.014;2023-03-01T13:37:10;4.30;;;3.80;;
29362;SDS011;16349;53.672;10.014;2023-03-01T13:39:45;4.83;;;3.30;;
29362;SDS011;16349;53.672;10.014;2023-03-01T13:45:18;4.67;;;3.67;;
29362;SDS011;16349;53.672;10.014;2023-03-01T13:47:49;5.87;;;3.87;;
29362;SDS011;16349;53.672;10.014;2023-03-01T13:50:21;6.13;;;3.50;;
29362;SDS011;16349;53.672;10.014;2023-03-01T13:52:50;4.10;;;3.70;;
29362;SDS011;16349;53.672;10.014;2023-03-01T13:55:24;4.33;;;3.50;;
29362;SDS011;16349;53.672;10.014;2023-03-01T13:57:58;4.63;;;3.40;;
29362;SDS011;16349;53.672;10.014;2023-03-01T14:00:28;4.23;;;3.83;;
29362;SDS011;16349;53.672;10.014;2023-03-01T14:03:08;4.57;;;3.37;;
29362;SDS011;16349;53.672;10.014;2023-03-01T14:05:38;4.13;;;3.57;;
29362;SDS011;16349;53.672;10.014;2023-03-01T14:08:14;6.80;;;4.03;;
29362;SDS011;16349;53.672;10.014;2023-03-01T14:10:49;4.57;;;3.37;;
29362;SDS011;16349;53.672;10.014;2023-03-01T14:14:01;5.77;;;4.13;;
29362;SDS011;16349;53.672;10.014;2023-03-01T14:16:39;4.23;;;3.83;;
29362;SDS011;16349;53.672;10.014;2023-03-01T14:19:17;6.57;;;4.70;;
29362;SDS011;16349;53.672;10.014;2023-03-01T14:21:46;4.97;;;4.57;;
29362;SDS011;16349;53.672;10.014;2023-03-01T14:24:17;4.50;;;4.10;;
29362;SDS011;16349;53.672;10.014;2023-03-01T14:26:46;4.70;;;4.17;;
29362;SDS011;16349;53.672;10.014;2023-03-01T14:29:28;7.10;;;4.43;;
29362;SDS011;16349;53.672;10.014;2023-03-01T14:32:08;5.33;;;4.30;;
29362;SDS011;16349;53.672;10.014;2023-03-01T14:34:36;4.80;;;4.40;;
29362;SDS011;16349;53.672;10.014;2023-03-01T14:37:09;7.03;;;4.53;;
29362;SDS011;16349;53.672;10.014;2023-03-01T14:39:37;5.10;;;4.60;;
29362;SDS011;16349;53.672;10.014;2023-03-01T14:42:04;5.03;;;4.47;;
29362;SDS011;16349;53.672;10.014;2023-03-01T14:44:33;5.03;;;4.43;;
29362;SDS011;16349;53.672;10.014;2023-03-01T14:47:03;6.80;;;4.70;;
29362;SDS011;16349;53.672;10.014;2023-03-01T14:49:31;7.17;;;4.57;;
29362;SDS011;16349;53.672;10.014;2023-03-01T14:51:59;6.77;;;5.27;;
29362;SDS011;16349;53.672;10.014;2023-03-01T14:54:29;3.67;;;3.37;;
29362;SDS011;16349;53.672;10.014;2023-03-01T14:57:12;3.87;;;3.47;;
29362;SDS011;16349;53.672;10.014;2023-03-01T14:59:43;4.87;;;3.80;;
29362;SDS011;16349;53.672;10.014;2023-03-01T15:02:11;4.13;;;3.73;;